sensor_id;sensor_type;location;lat;lon;timestamp;P1;durP1;ratioP1;P2;durP2;ratioP2
49854;SDS011;35752;52.164;21.244;2022-11-14T00:00:08;37.72;;;22.75;;
49854;SDS011;35752;52.164;21.244;2022-11-14T00:02:35;42.33;;;23.88;;
49854;SDS011;35752;52.164;21.244;2022-11-14T00:05:01;41.58;;;22.15;;
49854;SDS011;35752;52.164;21.244;2022-11-14T00:07:31;42.63;;;23.25;;
49854;SDS011;35752;52.164;21.244;2022-11-14T00:09:57;43.35;;;22.52;;
49854;SDS011;35752;52.164;21.244;2022-11-14T00:12:23;46.72;;;24.00;;
49854;SDS011;35752;52.164;21.244;2022-11-14T00:14:49;45.83;;;22.33;;
49854;SDS011;35752;52.164;21.244;2022-11-14T00:17:15;44.88;;;23.50;;
49854;SDS011;35752;52.164;21.244;2022-11-14T00:19:41;46.83;;;24.70;;
49854;SDS011;35752;52.164;21.244;2022-11-14T00:22:07;44.42;;;24.30;;
49854;SDS011;35752;52.164;21.244;2022-11-14T00:24:33;46.80;;;25.05;;
49854;SDS011;35752;52.164;21.244;2022-11-14T00:26:58;43.05;;;24.55;;
49854;SDS011;35752;52.164;21.244;2022-11-14T00:29:24;58.25;;;26.38;;
49854;SDS011;35752;52.164;21.244;2022-11-14T00:31:50;49.90;;;26.33;;
49854;SDS011;35752;52.164;21.244;2022-11-14T00:34:15;50.65;;;25.42;;
49854;SDS011;35752;52.164;21.244;2022-11-14T00:36:41;48.05;;;24.95;;
49854;SDS011;35752;52.164;21.244;2022-11-14T00:39:10;55.50;;;26.40;;
49854;SDS011;35752;52.164;21.244;2022-11-14T00:41:36;52.75;;;26.05;;
49854;SDS011;35752;52.164;21.244;2022-11-14T00:44:02;51.28;;;25.40;;
49854;SDS011;35752;52.164;21.244;2022-11-14T00:46:28;54.95;;;27.80;;
49854;SDS011;35752;52.164;21.244;2022-11-14T00:48:54;56.17;;;27.13;;
49854;SDS011;35752;52.164;21.244;2022-11-14T00:51:19;51.35;;;26.20;;
49854;SDS011;35752;52.164;21.244;2022-11-14T00:53:45;54.33;;;26.08;;
49854;SDS011;35752;52.164;21.244;2022-11-14T00:56:10;64.90;;;27.80;;
49854;SDS011;35752;52.164;21.244;2022-11-14T00:58:36;54.03;;;26.15;;
49854;SDS011;35752;52.164;21.244;2022-11-14T01:01:02;59.10;;;27.40;;
49854;SDS011;35752;52.164;21.244;2022-11-14T01:03:28;64.57;;;29.35;;
49854;SDS011;35752;52.164;21.244;2022-11-14T01:05:53;55.03;;;27.70;;
49854;SDS011;35752;52.164;21.244;2022-11-14T01:08:19;53.15;;;28.08;;
49854;SDS011;35752;52.164;21.244;2022-11-14T01:10:48;57.08;;;26.33;;
49854;SDS011;35752;52.164;21.244;2022-11-14T01:13:15;57.15;;;27.35;;
49854;SDS011;35752;52.164;21.244;2022-11-14T01:15:43;53.60;;;26.15;;
49854;SDS011;35752;52.164;21.244;2022-11-14T01:18:11;50.40;;;25.30;;
49854;SDS011;35752;52.164;21.244;2022-11-14T01:20:39;53.72;;;26.90;;
49854;SDS011;35752;52.164;21.244;2022-11-14T01:23:07;49.20;;;24.95;;
49854;SDS011;35752;52.164;21.244;2022-11-14T01:25:34;55.05;;;26.67;;
49854;SDS011;35752;52.164;21.244;2022-11-14T01:28:04;50.63;;;25.17;;
49854;SDS011;35752;52.164;21.244;2022-11-14T01:30:34;50.97;;;25.58;;
49854;SDS011;35752;52.164;21.244;2022-11-14T01:33:00;48.33;;;24.90;;
49854;SDS011;35752;52.164;21.244;2022-11-14T01:35:26;40.83;;;21.27;;
49854;SDS011;35752;52.164;21.244;2022-11-14T01:37:52;41.63;;;23.83;;
49854;SDS011;35752;52.164;21.244;2022-11-14T01:40:18;42.17;;;22.92;;
49854;SDS011;35752;52.164;21.244;2022-11-14T01:46:26;40.33;;;21.73;;
49854;SDS011;35752;52.164;21.244;2022-11-14T01:48:31;40.95;;;22.17;;
49854;SDS011;35752;52.164;21.244;2022-11-14T01:50:59;41.58;;;23.42;;
49854;SDS011;35752;52.164;21.244;2022-11-14T01:53:50;43.33;;;24.05;;
49854;SDS011;35752;52.164;21.244;2022-11-14T01:56:20;41.22;;;22.55;;
49854;SDS011;35752;52.164;21.244;2022-11-14T01:58:59;36.35;;;20.83;;
49854;SDS011;35752;52.164;21.244;2022-11-14T02:01:29;40.75;;;21.77;;
49854;SDS011;35752;52.164;21.244;2022-11-14T02:03:56;43.25;;;22.38;;
49854;SDS011;35752;52.164;21.244;2022-11-14T02:06:26;38.50;;;21.15;;
49854;SDS011;35752;52.164;21.244;2022-11-14T02:08:54;36.15;;;21.90;;
49854;SDS011;35752;52.164;21.244;2022-11-14T02:11:21;37.10;;;21.77;;
49854;SDS011;35752;52.164;21.244;2022-11-14T02:13:47;38.95;;;22.25;;
49854;SDS011;35752;52.164;21.244;2022-11-14T02:16:13;35.85;;;21.55;;
49854;SDS011;35752;52.164;21.244;2022-11-14T02:18:39;37.30;;;22.00;;
49854;SDS011;35752;52.164;21.244;2022-11-14T02:21:05;35.60;;;21.88;;
49854;SDS011;35752;52.164;21.244;2022-11-14T02:23:31;39.13;;;22.48;;
49854;SDS011;35752;52.164;21.244;2022-11-14T02:25:57;38.47;;;21.45;;
49854;SDS011;35752;52.164;21.244;2022-11-14T02:28:23;33.53;;;20.42;;
49854;SDS011;35752;52.164;21.244;2022-11-14T02:30:50;40.53;;;22.00;;
49854;SDS011;35752;52.164;21.244;2022-11-14T02:33:15;35.58;;;20.15;;
49854;SDS011;35752;52.164;21.244;2022-11-14T02:35:41;35.80;;;21.35;;
49854;SDS011;35752;52.164;21.244;2022-11-14T02:38:07;35.63;;;21.27;;
49854;SDS011;35752;52.164;21.244;2022-11-14T02:40:33;38.80;;;22.50;;
49854;SDS011;35752;52.164;21.244;2022-11-14T02:42:59;36.35;;;20.63;;
49854;SDS011;35752;52.164;21.244;2022-11-14T02:45:24;39.95;;;21.23;;
49854;SDS011;35752;52.164;21.244;2022-11-14T02:47:50;41.40;;;21.98;;
49854;SDS011;35752;52.164;21.244;2022-11-14T02:50:16;35.42;;;21.73;;
49854;SDS011;35752;52.164;21.244;2022-11-14T02:52:42;40.58;;;22.15;;
49854;SDS011;35752;52.164;21.244;2022-11-14T02:55:08;36.20;;;21.90;;
49854;SDS011;35752;52.164;21.244;2022-11-14T02:57:34;41.78;;;21.67;;
49854;SDS011;35752;52.164;21.244;2022-11-14T02:59:59;34.38;;;21.08;;
49854;SDS011;35752;52.164;21.244;2022-11-14T03:02:25;37.70;;;20.90;;
49854;SDS011;35752;52.164;21.244;2022-11-14T03:04:51;38.80;;;22.27;;
49854;SDS011;35752;52.164;21.244;2022-11-14T03:07:17;37.63;;;21.10;;
49854;SDS011;35752;52.164;21.244;2022-11-14T03:09:42;37.90;;;22.10;;
49854;SDS011;35752;52.164;21.244;2022-11-14T03:12:08;42.05;;;22.77;;
49854;SDS011;35752;52.164;21.244;2022-11-14T03:14:34;31.88;;;21.25;;
49854;SDS011;35752;52.164;21.244;2022-11-14T03:17:00;41.80;;;24.17;;
49854;SDS011;35752;52.164;21.244;2022-11-14T03:19:25;41.28;;;24.42;;
49854;SDS011;35752;52.164;21.244;2022-11-14T03:21:51;36.00;;;23.08;;
49854;SDS011;35752;52.164;21.244;2022-11-14T03:24:17;34.13;;;22.05;;
49854;SDS011;35752;52.164;21.244;2022-11-14T03:26:42;37.88;;;23.63;;
49854;SDS011;35752;52.164;21.244;2022-11-14T03:29:08;37.85;;;23.58;;
49854;SDS011;35752;52.164;21.244;2022-11-14T03:31:34;37.70;;;23.70;;
49854;SDS011;35752;52.164;21.244;2022-11-14T03:33:59;41.25;;;25.73;;
49854;SDS011;35752;52.164;21.244;2022-11-14T03:36:25;44.17;;;28.20;;
49854;SDS011;35752;52.164;21.244;2022-11-14T03:38:51;42.05;;;27.92;;
49854;SDS011;35752;52.164;21.244;2022-11-14T03:41:16;48.95;;;30.67;;
49854;SDS011;35752;52.164;21.244;2022-11-14T03:43:42;42.55;;;29.20;;
49854;SDS011;35752;52.164;21.244;2022-11-14T03:46:07;42.15;;;29.17;;
49854;SDS011;35752;52.164;21.244;2022-11-14T03:48:33;47.53;;;30.92;;
49854;SDS011;35752;52.164;21.244;2022-11-14T03:50:59;44.67;;;28.20;;
49854;SDS011;35752;52.164;21.244;2022-11-14T03:53:24;46.17;;;28.98;;
49854;SDS011;35752;52.164;21.244;2022-11-14T03:55:50;41.30;;;27.58;;
49854;SDS011;35752;52.164;21.244;2022-11-14T03:58:16;43.38;;;27.83;;
49854;SDS011;35752;52.164;21.244;2022-11-14T04:00:42;43.70;;;28.48;;
49854;SDS011;35752;52.164;21.244;2022-11-14T04:03:08;41.92;;;27.55;;
49854;SDS011;35752;52.164;21.244;2022-11-14T04:05:33;44.20;;;28.42;;
49854;SDS011;35752;52.164;21.244;2022-11-14T04:07:59;45.92;;;28.15;;
49854;SDS011;35752;52.164;21.244;2022-11-14T04:10:25;42.10;;;27.73;;
49854;SDS011;35752;52.164;21.244;2022-11-14T04:12:51;43.63;;;27.75;;
49854;SDS011;35752;52.164;21.244;2022-11-14T04:15:18;41.47;;;26.17;;
49854;SDS011;35752;52.164;21.244;2022-11-14T04:17:45;44.53;;;27.73;;
49854;SDS011;35752;52.164;21.244;2022-11-14T04:20:11;39.20;;;26.52;;
49854;SDS011;35752;52.164;21.244;2022-11-14T04:22:38;42.70;;;26.40;;
49854;SDS011;35752;52.164;21.244;2022-11-14T04:25:05;43.08;;;25.23;;
49854;SDS011;35752;52.164;21.244;2022-11-14T04:27:31;37.17;;;24.65;;
49854;SDS011;35752;52.164;21.244;2022-11-14T04:29:57;35.85;;;23.38;;
49854;SDS011;35752;52.164;21.244;2022-11-14T04:32:22;35.78;;;23.63;;
49854;SDS011;35752;52.164;21.244;2022-11-14T04:34:48;40.97;;;23.25;;
49854;SDS011;35752;52.164;21.244;2022-11-14T04:37:14;35.60;;;22.40;;
49854;SDS011;35752;52.164;21.244;2022-11-14T04:39:39;30.70;;;21.42;;
49854;SDS011;35752;52.164;21.244;2022-11-14T04:42:05;29.88;;;20.70;;
49854;SDS011;35752;52.164;21.244;2022-11-14T04:44:31;27.75;;;18.77;;
49854;SDS011;35752;52.164;21.244;2022-11-14T04:46:56;37.03;;;20.75;;
49854;SDS011;35752;52.164;21.244;2022-11-14T04:49:22;27.85;;;19.13;;
49854;SDS011;35752;52.164;21.244;2022-11-14T04:51:48;29.80;;;19.25;;
49854;SDS011;35752;52.164;21.244;2022-11-14T04:54:14;27.98;;;18.73;;
49854;SDS011;35752;52.164;21.244;2022-11-14T04:56:39;29.42;;;19.77;;
49854;SDS011;35752;52.164;21.244;2022-11-14T04:59:05;29.65;;;20.35;;
49854;SDS011;35752;52.164;21.244;2022-11-14T05:01:31;28.08;;;18.85;;
49854;SDS011;35752;52.164;21.244;2022-11-14T05:03:56;27.25;;;18.95;;
49854;SDS011;35752;52.164;21.244;2022-11-14T05:06:22;29.52;;;19.02;;
49854;SDS011;35752;52.164;21.244;2022-11-14T05:08:48;25.27;;;17.70;;
49854;SDS011;35752;52.164;21.244;2022-11-14T05:11:14;28.95;;;18.23;;
49854;SDS011;35752;52.164;21.244;2022-11-14T05:13:41;26.60;;;17.08;;
49854;SDS011;35752;52.164;21.244;2022-11-14T05:16:06;27.42;;;17.25;;
49854;SDS011;35752;52.164;21.244;2022-11-14T05:18:32;29.35;;;18.80;;
49854;SDS011;35752;52.164;21.244;2022-11-14T05:20:58;26.65;;;17.58;;
49854;SDS011;35752;52.164;21.244;2022-11-14T05:23:24;25.00;;;17.15;;
49854;SDS011;35752;52.164;21.244;2022-11-14T05:26:00;33.40;;;19.38;;
49854;SDS011;35752;52.164;21.244;2022-11-14T05:28:28;24.45;;;17.27;;
49854;SDS011;35752;52.164;21.244;2022-11-14T05:31:03;24.67;;;16.42;;
49854;SDS011;35752;52.164;21.244;2022-11-14T05:33:30;26.35;;;16.98;;
49854;SDS011;35752;52.164;21.244;2022-11-14T05:36:00;24.50;;;17.13;;
49854;SDS011;35752;52.164;21.244;2022-11-14T05:38:30;27.20;;;18.55;;
49854;SDS011;35752;52.164;21.244;2022-11-14T05:40:55;30.08;;;16.60;;
49854;SDS011;35752;52.164;21.244;2022-11-14T05:43:21;27.58;;;18.00;;
49854;SDS011;35752;52.164;21.244;2022-11-14T05:45:47;26.95;;;17.60;;
49854;SDS011;35752;52.164;21.244;2022-11-14T05:48:12;25.25;;;16.92;;
49854;SDS011;35752;52.164;21.244;2022-11-14T05:50:38;25.23;;;17.00;;
49854;SDS011;35752;52.164;21.244;2022-11-14T05:53:04;28.42;;;17.25;;
49854;SDS011;35752;52.164;21.244;2022-11-14T05:55:29;29.00;;;18.75;;
49854;SDS011;35752;52.164;21.244;2022-11-14T05:57:58;28.52;;;17.35;;
49854;SDS011;35752;52.164;21.244;2022-11-14T06:00:24;29.70;;;18.05;;
49854;SDS011;35752;52.164;21.244;2022-11-14T06:02:51;28.30;;;17.65;;
49854;SDS011;35752;52.164;21.244;2022-11-14T06:05:20;27.87;;;17.43;;
49854;SDS011;35752;52.164;21.244;2022-11-14T06:07:46;29.75;;;18.50;;
49854;SDS011;35752;52.164;21.244;2022-11-14T06:10:18;23.88;;;16.48;;
49854;SDS011;35752;52.164;21.244;2022-11-14T06:12:44;24.88;;;15.60;;
49854;SDS011;35752;52.164;21.244;2022-11-14T06:15:09;26.38;;;16.98;;
49854;SDS011;35752;52.164;21.244;2022-11-14T06:17:35;27.95;;;16.70;;
49854;SDS011;35752;52.164;21.244;2022-11-14T06:20:00;24.88;;;17.25;;
49854;SDS011;35752;52.164;21.244;2022-11-14T06:22:26;24.77;;;16.35;;
49854;SDS011;35752;52.164;21.244;2022-11-14T06:24:52;24.48;;;15.38;;
49854;SDS011;35752;52.164;21.244;2022-11-14T06:27:17;22.83;;;14.82;;
49854;SDS011;35752;52.164;21.244;2022-11-14T06:29:43;27.85;;;16.15;;
49854;SDS011;35752;52.164;21.244;2022-11-14T06:32:08;21.52;;;14.38;;
49854;SDS011;35752;52.164;21.244;2022-11-14T06:34:34;24.52;;;14.45;;
49854;SDS011;35752;52.164;21.244;2022-11-14T06:37:00;22.90;;;14.10;;
49854;SDS011;35752;52.164;21.244;2022-11-14T06:39:25;25.92;;;14.93;;
49854;SDS011;35752;52.164;21.244;2022-11-14T06:41:51;22.58;;;14.60;;
49854;SDS011;35752;52.164;21.244;2022-11-14T06:44:16;25.30;;;15.43;;
49854;SDS011;35752;52.164;21.244;2022-11-14T06:46:42;21.65;;;13.10;;
49854;SDS011;35752;52.164;21.244;2022-11-14T06:49:08;20.63;;;12.80;;
49854;SDS011;35752;52.164;21.244;2022-11-14T06:51:33;18.40;;;12.73;;
49854;SDS011;35752;52.164;21.244;2022-11-14T06:53:59;20.98;;;12.50;;
49854;SDS011;35752;52.164;21.244;2022-11-14T06:56:25;15.95;;;11.60;;
49854;SDS011;35752;52.164;21.244;2022-11-14T06:58:50;17.58;;;11.13;;
49854;SDS011;35752;52.164;21.244;2022-11-14T07:01:17;15.27;;;11.02;;
49854;SDS011;35752;52.164;21.244;2022-11-14T07:03:43;17.25;;;10.85;;
49854;SDS011;35752;52.164;21.244;2022-11-14T07:06:11;16.48;;;11.32;;
49854;SDS011;35752;52.164;21.244;2022-11-14T07:08:39;17.45;;;10.45;;
49854;SDS011;35752;52.164;21.244;2022-11-14T07:11:11;17.10;;;10.43;;
49854;SDS011;35752;52.164;21.244;2022-11-14T07:16:19;13.60;;;9.77;;
49854;SDS011;35752;52.164;21.244;2022-11-14T07:18:53;16.00;;;10.07;;
49854;SDS011;35752;52.164;21.244;2022-11-14T07:21:20;16.50;;;11.00;;
49854;SDS011;35752;52.164;21.244;2022-11-14T07:23:46;16.88;;;10.07;;
49854;SDS011;35752;52.164;21.244;2022-11-14T07:26:11;14.13;;;10.00;;
49854;SDS011;35752;52.164;21.244;2022-11-14T07:28:39;18.10;;;10.55;;
49854;SDS011;35752;52.164;21.244;2022-11-14T07:31:07;15.73;;;10.18;;
49854;SDS011;35752;52.164;21.244;2022-11-14T07:33:34;14.55;;;9.80;;
49854;SDS011;35752;52.164;21.244;2022-11-14T07:36:00;15.02;;;10.38;;
49854;SDS011;35752;52.164;21.244;2022-11-14T07:38:26;13.55;;;10.18;;
49854;SDS011;35752;52.164;21.244;2022-11-14T07:40:55;13.77;;;9.88;;
49854;SDS011;35752;52.164;21.244;2022-11-14T07:43:21;14.67;;;8.77;;
49854;SDS011;35752;52.164;21.244;2022-11-14T07:45:47;14.57;;;9.57;;
49854;SDS011;35752;52.164;21.244;2022-11-14T07:48:13;14.73;;;9.27;;
49854;SDS011;35752;52.164;21.244;2022-11-14T07:50:38;13.60;;;9.23;;
49854;SDS011;35752;52.164;21.244;2022-11-14T07:53:04;11.52;;;8.63;;
49854;SDS011;35752;52.164;21.244;2022-11-14T07:55:30;11.18;;;7.85;;
49854;SDS011;35752;52.164;21.244;2022-11-14T07:57:58;11.45;;;7.50;;
49854;SDS011;35752;52.164;21.244;2022-11-14T08:00:24;10.60;;;7.93;;
49854;SDS011;35752;52.164;21.244;2022-11-14T08:02:49;12.27;;;8.43;;
49854;SDS011;35752;52.164;21.244;2022-11-14T08:05:15;10.25;;;8.15;;
49854;SDS011;35752;52.164;21.244;2022-11-14T08:07:41;10.35;;;8.07;;
49854;SDS011;35752;52.164;21.244;2022-11-14T08:10:07;9.55;;;6.95;;
49854;SDS011;35752;52.164;21.244;2022-11-14T08:12:35;13.45;;;8.50;;
49854;SDS011;35752;52.164;21.244;2022-11-14T08:15:03;10.95;;;8.00;;
49854;SDS011;35752;52.164;21.244;2022-11-14T08:17:30;11.23;;;7.93;;
49854;SDS011;35752;52.164;21.244;2022-11-14T08:19:56;13.95;;;9.07;;
49854;SDS011;35752;52.164;21.244;2022-11-14T08:22:22;13.20;;;7.53;;
49854;SDS011;35752;52.164;21.244;2022-11-14T08:24:48;10.80;;;7.85;;
49854;SDS011;35752;52.164;21.244;2022-11-14T08:27:13;12.30;;;8.75;;
49854;SDS011;35752;52.164;21.244;2022-11-14T08:29:39;11.27;;;8.13;;
49854;SDS011;35752;52.164;21.244;2022-11-14T08:32:05;10.52;;;7.75;;
49854;SDS011;35752;52.164;21.244;2022-11-14T08:34:31;9.63;;;7.22;;
49854;SDS011;35752;52.164;21.244;2022-11-14T08:36:56;12.35;;;7.70;;
49854;SDS011;35752;52.164;21.244;2022-11-14T08:39:22;9.10;;;7.80;;
49854;SDS011;35752;52.164;21.244;2022-11-14T08:41:48;9.00;;;6.95;;
49854;SDS011;35752;52.164;21.244;2022-11-14T08:44:14;9.73;;;6.93;;
49854;SDS011;35752;52.164;21.244;2022-11-14T08:46:39;10.90;;;6.65;;
49854;SDS011;35752;52.164;21.244;2022-11-14T08:49:05;11.90;;;7.50;;
49854;SDS011;35752;52.164;21.244;2022-11-14T08:51:31;7.18;;;6.00;;
49854;SDS011;35752;52.164;21.244;2022-11-14T08:53:56;7.63;;;6.28;;
49854;SDS011;35752;52.164;21.244;2022-11-14T08:56:22;7.78;;;5.85;;
49854;SDS011;35752;52.164;21.244;2022-11-14T08:58:48;8.57;;;5.70;;
49854;SDS011;35752;52.164;21.244;2022-11-14T09:01:13;8.10;;;5.75;;
49854;SDS011;35752;52.164;21.244;2022-11-14T09:03:39;7.57;;;5.43;;
49854;SDS011;35752;52.164;21.244;2022-11-14T09:06:05;7.25;;;5.22;;
49854;SDS011;35752;52.164;21.244;2022-11-14T09:08:30;6.13;;;4.65;;
49854;SDS011;35752;52.164;21.244;2022-11-14T09:11:00;8.55;;;4.43;;
49854;SDS011;35752;52.164;21.244;2022-11-14T09:13:27;5.38;;;4.13;;
49854;SDS011;35752;52.164;21.244;2022-11-14T09:15:52;7.90;;;3.97;;
49854;SDS011;35752;52.164;21.244;2022-11-14T09:18:18;8.25;;;4.40;;
49854;SDS011;35752;52.164;21.244;2022-11-14T09:20:44;7.55;;;4.55;;
49854;SDS011;35752;52.164;21.244;2022-11-14T09:23:10;5.18;;;4.15;;
49854;SDS011;35752;52.164;21.244;2022-11-14T09:25:36;7.97;;;3.90;;
49854;SDS011;35752;52.164;21.244;2022-11-14T09:28:03;4.93;;;3.80;;
49854;SDS011;35752;52.164;21.244;2022-11-14T09:30:30;5.13;;;4.20;;
49854;SDS011;35752;52.164;21.244;2022-11-14T09:32:59;8.48;;;4.68;;
49854;SDS011;35752;52.164;21.244;2022-11-14T09:35:26;5.35;;;3.95;;
49854;SDS011;35752;52.164;21.244;2022-11-14T09:37:59;6.32;;;4.07;;
49854;SDS011;35752;52.164;21.244;2022-11-14T09:40:26;5.88;;;4.15;;
49854;SDS011;35752;52.164;21.244;2022-11-14T09:45:39;4.85;;;3.72;;
49854;SDS011;35752;52.164;21.244;2022-11-14T09:48:12;5.68;;;4.38;;
49854;SDS011;35752;52.164;21.244;2022-11-14T09:50:42;5.68;;;4.22;;
49854;SDS011;35752;52.164;21.244;2022-11-14T09:53:24;6.03;;;3.72;;
49854;SDS011;35752;52.164;21.244;2022-11-14T09:56:03;6.70;;;4.70;;
49854;SDS011;35752;52.164;21.244;2022-11-14T09:58:30;5.75;;;4.13;;
49854;SDS011;35752;52.164;21.244;2022-11-14T10:00:57;6.72;;;4.18;;
49854;SDS011;35752;52.164;21.244;2022-11-14T10:03:32;5.72;;;4.50;;
49854;SDS011;35752;52.164;21.244;2022-11-14T10:11:55;8.80;;;5.55;;
49854;SDS011;35752;52.164;21.244;2022-11-14T10:20:32;10.13;;;6.88;;
49854;SDS011;35752;52.164;21.244;2022-11-14T10:36:57;13.23;;;9.20;;
49854;SDS011;35752;52.164;21.244;2022-11-14T10:42:08;12.68;;;8.52;;
49854;SDS011;35752;52.164;21.244;2022-11-14T10:45:16;13.43;;;9.07;;
49854;SDS011;35752;52.164;21.244;2022-11-14T10:47:53;16.70;;;10.48;;
49854;SDS011;35752;52.164;21.244;2022-11-14T10:50:48;14.38;;;9.68;;
49854;SDS011;35752;52.164;21.244;2022-11-14T10:53:22;14.90;;;10.63;;
49854;SDS011;35752;52.164;21.244;2022-11-14T10:55:49;12.65;;;9.68;;
49854;SDS011;35752;52.164;21.244;2022-11-14T10:58:17;16.35;;;10.45;;
49854;SDS011;35752;52.164;21.244;2022-11-14T11:00:43;17.35;;;11.77;;
49854;SDS011;35752;52.164;21.244;2022-11-14T11:03:08;18.58;;;12.02;;
49854;SDS011;35752;52.164;21.244;2022-11-14T11:05:43;17.90;;;12.93;;
49854;SDS011;35752;52.164;21.244;2022-11-14T11:08:11;22.75;;;15.02;;
49854;SDS011;35752;52.164;21.244;2022-11-14T11:10:57;23.17;;;16.23;;
49854;SDS011;35752;52.164;21.244;2022-11-14T11:13:49;21.02;;;14.38;;
49854;SDS011;35752;52.164;21.244;2022-11-14T11:16:18;17.60;;;12.95;;
49854;SDS011;35752;52.164;21.244;2022-11-14T11:18:46;22.08;;;13.35;;
49854;SDS011;35752;52.164;21.244;2022-11-14T11:21:13;19.70;;;12.43;;
49854;SDS011;35752;52.164;21.244;2022-11-14T11:24:15;17.90;;;12.48;;
49854;SDS011;35752;52.164;21.244;2022-11-14T11:26:32;16.83;;;10.27;;
49854;SDS011;35752;52.164;21.244;2022-11-14T11:31:52;14.60;;;9.00;;
49854;SDS011;35752;52.164;21.244;2022-11-14T11:34:26;12.98;;;8.88;;
49854;SDS011;35752;52.164;21.244;2022-11-14T11:39:49;10.02;;;7.78;;
49854;SDS011;35752;52.164;21.244;2022-11-14T11:42:20;12.23;;;8.40;;
49854;SDS011;35752;52.164;21.244;2022-11-14T11:44:54;9.98;;;7.55;;
49854;SDS011;35752;52.164;21.244;2022-11-14T11:47:23;10.18;;;7.43;;
49854;SDS011;35752;52.164;21.244;2022-11-14T11:49:51;9.88;;;7.20;;
49854;SDS011;35752;52.164;21.244;2022-11-14T11:55:03;9.07;;;5.93;;
49854;SDS011;35752;52.164;21.244;2022-11-14T11:57:31;10.52;;;7.40;;
49854;SDS011;35752;52.164;21.244;2022-11-14T12:00:12;14.73;;;7.93;;
49854;SDS011;35752;52.164;21.244;2022-11-14T12:02:45;10.45;;;7.63;;
49854;SDS011;35752;52.164;21.244;2022-11-14T12:05:15;13.80;;;9.05;;
49854;SDS011;35752;52.164;21.244;2022-11-14T12:08:05;13.15;;;8.32;;
49854;SDS011;35752;52.164;21.244;2022-11-14T12:10:50;11.77;;;8.30;;
49854;SDS011;35752;52.164;21.244;2022-11-14T12:16:17;12.35;;;8.57;;
49854;SDS011;35752;52.164;21.244;2022-11-14T12:29:29;16.00;;;10.88;;
49854;SDS011;35752;52.164;21.244;2022-11-14T12:31:58;17.58;;;11.35;;
49854;SDS011;35752;52.164;21.244;2022-11-14T12:34:31;16.00;;;11.13;;
49854;SDS011;35752;52.164;21.244;2022-11-14T12:37:37;15.82;;;11.35;;
49854;SDS011;35752;52.164;21.244;2022-11-14T12:39:58;17.25;;;11.40;;
49854;SDS011;35752;52.164;21.244;2022-11-14T12:42:27;16.13;;;11.80;;
49854;SDS011;35752;52.164;21.244;2022-11-14T12:44:53;18.90;;;12.82;;
49854;SDS011;35752;52.164;21.244;2022-11-14T12:47:20;20.10;;;13.27;;
49854;SDS011;35752;52.164;21.244;2022-11-14T12:55:53;21.63;;;14.90;;
49854;SDS011;35752;52.164;21.244;2022-11-14T13:05:54;34.10;;;21.45;;
49854;SDS011;35752;52.164;21.244;2022-11-14T13:08:32;35.88;;;22.02;;
49854;SDS011;35752;52.164;21.244;2022-11-14T13:11:32;37.22;;;22.48;;
49854;SDS011;35752;52.164;21.244;2022-11-14T13:14:28;35.83;;;22.25;;
49854;SDS011;35752;52.164;21.244;2022-11-14T13:33:58;42.42;;;24.95;;
49854;SDS011;35752;52.164;21.244;2022-11-14T13:50:29;39.95;;;24.30;;
49854;SDS011;35752;52.164;21.244;2022-11-14T13:53:01;37.65;;;22.50;;
49854;SDS011;35752;52.164;21.244;2022-11-14T14:01:23;40.03;;;24.05;;
49854;SDS011;35752;52.164;21.244;2022-11-14T14:06:47;45.72;;;26.77;;
49854;SDS011;35752;52.164;21.244;2022-11-14T14:09:24;47.03;;;27.13;;
49854;SDS011;35752;52.164;21.244;2022-11-14T14:20:02;48.78;;;27.67;;
49854;SDS011;35752;52.164;21.244;2022-11-14T14:31:02;47.90;;;27.85;;
49854;SDS011;35752;52.164;21.244;2022-11-14T14:33:41;47.70;;;28.17;;
49854;SDS011;35752;52.164;21.244;2022-11-14T14:36:19;47.78;;;28.00;;
49854;SDS011;35752;52.164;21.244;2022-11-14T14:38:47;48.28;;;29.00;;
49854;SDS011;35752;52.164;21.244;2022-11-14T14:41:15;51.30;;;29.35;;
49854;SDS011;35752;52.164;21.244;2022-11-14T14:43:45;46.47;;;27.27;;
49854;SDS011;35752;52.164;21.244;2022-11-14T14:46:15;46.15;;;28.10;;
49854;SDS011;35752;52.164;21.244;2022-11-14T14:48:50;47.83;;;28.00;;
49854;SDS011;35752;52.164;21.244;2022-11-14T14:51:27;41.65;;;26.50;;
49854;SDS011;35752;52.164;21.244;2022-11-14T14:53:57;42.15;;;26.67;;
49854;SDS011;35752;52.164;21.244;2022-11-14T14:56:23;36.65;;;24.42;;
49854;SDS011;35752;52.164;21.244;2022-11-14T14:58:50;35.75;;;24.08;;
49854;SDS011;35752;52.164;21.244;2022-11-14T15:01:16;32.10;;;23.15;;
49854;SDS011;35752;52.164;21.244;2022-11-14T15:03:52;34.67;;;23.23;;
49854;SDS011;35752;52.164;21.244;2022-11-14T15:08:59;35.28;;;24.13;;
49854;SDS011;35752;52.164;21.244;2022-11-14T15:11:26;33.58;;;22.98;;
49854;SDS011;35752;52.164;21.244;2022-11-14T15:13:54;31.42;;;20.88;;
49854;SDS011;35752;52.164;21.244;2022-11-14T15:16:21;35.45;;;21.75;;
49854;SDS011;35752;52.164;21.244;2022-11-14T15:18:49;30.02;;;21.13;;
49854;SDS011;35752;52.164;21.244;2022-11-14T15:23:45;32.33;;;21.02;;
49854;SDS011;35752;52.164;21.244;2022-11-14T15:26:21;31.02;;;21.10;;
49854;SDS011;35752;52.164;21.244;2022-11-14T15:28:47;30.80;;;21.48;;
49854;SDS011;35752;52.164;21.244;2022-11-14T15:31:19;30.17;;;20.60;;
49854;SDS011;35752;52.164;21.244;2022-11-14T15:33:59;29.73;;;20.83;;
49854;SDS011;35752;52.164;21.244;2022-11-14T15:36:25;33.03;;;20.33;;
49854;SDS011;35752;52.164;21.244;2022-11-14T15:39:03;31.90;;;20.83;;
49854;SDS011;35752;52.164;21.244;2022-11-14T15:41:30;30.90;;;21.27;;
49854;SDS011;35752;52.164;21.244;2022-11-14T15:43:57;29.35;;;20.92;;
49854;SDS011;35752;52.164;21.244;2022-11-14T15:48:58;29.55;;;21.10;;
49854;SDS011;35752;52.164;21.244;2022-11-14T15:51:58;35.17;;;21.83;;
49854;SDS011;35752;52.164;21.244;2022-11-14T15:54:27;27.42;;;19.50;;
49854;SDS011;35752;52.164;21.244;2022-11-14T15:56:53;28.48;;;19.80;;
49854;SDS011;35752;52.164;21.244;2022-11-14T15:59:24;27.92;;;19.88;;
49854;SDS011;35752;52.164;21.244;2022-11-14T16:01:53;30.50;;;20.63;;
49854;SDS011;35752;52.164;21.244;2022-11-14T16:04:24;28.98;;;20.73;;
49854;SDS011;35752;52.164;21.244;2022-11-14T16:06:53;28.02;;;21.10;;
49854;SDS011;35752;52.164;21.244;2022-11-14T16:09:20;30.00;;;20.58;;
49854;SDS011;35752;52.164;21.244;2022-11-14T16:11:45;30.30;;;21.40;;
49854;SDS011;35752;52.164;21.244;2022-11-14T16:14:11;27.63;;;21.08;;
49854;SDS011;35752;52.164;21.244;2022-11-14T16:16:37;28.17;;;20.40;;
49854;SDS011;35752;52.164;21.244;2022-11-14T16:19:04;29.20;;;19.55;;
49854;SDS011;35752;52.164;21.244;2022-11-14T16:21:30;26.70;;;20.23;;
49854;SDS011;35752;52.164;21.244;2022-11-14T16:23:57;28.25;;;20.08;;
49854;SDS011;35752;52.164;21.244;2022-11-14T16:26:22;28.60;;;19.92;;
49854;SDS011;35752;52.164;21.244;2022-11-14T16:28:50;27.67;;;19.67;;
49854;SDS011;35752;52.164;21.244;2022-11-14T16:31:16;28.55;;;19.75;;
49854;SDS011;35752;52.164;21.244;2022-11-14T16:33:42;26.15;;;19.77;;
49854;SDS011;35752;52.164;21.244;2022-11-14T16:36:10;27.85;;;19.77;;